createdAt,value
2018-09-08T00:02:21.247Z,98442.92
2018-09-08T00:04:51.686Z,98445.47
2018-09-08T00:07:25.524Z,98449.39
2018-09-08T00:09:55.624Z,98445.16
2018-09-08T00:12:24.265Z,98441.98
2018-09-08T00:14:53.190Z,98446.37
2018-09-08T00:17:27.170Z,98450.70
2018-09-08T00:20:01.209Z,98458.88
2018-09-08T00:22:35.094Z,98451.03
2018-09-08T00:25:09.794Z,98458.41
2018-09-08T00:27:42.814Z,98456.27
2018-09-08T00:30:13.810Z,98462.70
2018-09-08T00:32:43.171Z,98459.25
2018-09-08T00:35:12.346Z,98459.94
2018-09-08T00:37:41.434Z,98459.78
2018-09-08T00:40:11.295Z,98463.50
2018-09-08T00:42:39.902Z,98465.53
2018-09-08T00:45:09.395Z,98464.59
2018-09-08T00:47:38.239Z,98466.92
2018-09-08T00:50:07.551Z,98468.17
2018-09-08T00:52:36.438Z,98471.90
2018-09-08T00:55:05.724Z,98466.41
2018-09-08T00:57:34.385Z,98462.89
2018-09-08T01:00:03.509Z,98470.74
2018-09-08T01:02:32.617Z,98472.44
2018-09-08T01:05:01.469Z,98472.03
2018-09-08T01:07:30.856Z,98466.76
2018-09-08T01:10:02.633Z,98471.25
2018-09-08T01:12:31.981Z,98471.86
2018-09-08T01:15:01.846Z,98471.95
2018-09-08T01:17:30.870Z,98474.42
2018-09-08T01:19:59.505Z,98481.70
2018-09-08T01:22:30.703Z,98490.48
2018-09-08T01:24:59.584Z,98484.12
2018-09-08T01:27:28.420Z,98490.16
2018-09-08T01:29:58.025Z,98490.27
2018-09-08T01:32:26.704Z,98495.17
2018-09-08T01:34:55.460Z,98491.98
2018-09-08T01:37:24.855Z,98495.80
2018-09-08T01:39:53.607Z,98498.80
2018-09-08T01:42:23.265Z,98495.58
2018-09-08T01:44:51.890Z,98497.72
2018-09-08T01:47:20.636Z,98494.66
2018-09-08T01:49:49.225Z,98492.86
2018-09-08T01:52:18.051Z,98496.30
2018-09-08T01:54:46.739Z,98498.13
2018-09-08T01:57:15.865Z,98498.34
2018-09-08T01:59:44.776Z,98500.66
2018-09-08T02:02:13.696Z,98499.81
2018-09-08T02:04:43.317Z,98501.34
2018-09-08T02:07:13.003Z,98508.05
2018-09-08T02:09:41.710Z,98505.55
2018-09-08T02:12:10.610Z,98504.94
2018-09-08T02:14:39.892Z,98512.97
2018-09-08T02:17:09.605Z,98509.95
2018-09-08T02:19:38.523Z,98511.30
2018-09-08T02:22:07.822Z,98513.17
2018-09-08T02:24:37.291Z,98516.38
2018-09-08T02:27:06.297Z,98505.55
2018-09-08T02:29:35.536Z,98512.33
2018-09-08T02:32:05.320Z,98510.70
2018-09-08T02:34:35.178Z,98515.37
2018-09-08T02:37:05.096Z,98512.90
2018-09-08T02:39:34.433Z,98506.91
2018-09-08T02:42:03.626Z,98510.13
2018-09-08T02:44:32.792Z,98510.39
2018-09-08T02:47:04.650Z,98508.23
2018-09-08T02:50:39.111Z,98510.36
2018-09-08T02:53:08.711Z,98508.73
2018-09-08T02:55:36.532Z,98510.36
2018-09-08T02:58:04.517Z,98512.56
2018-09-08T03:00:32.684Z,98507.14
2018-09-08T03:03:00.109Z,98504.44
2018-09-08T03:05:28.047Z,98512.90
2018-09-08T03:07:55.332Z,98503.69
2018-09-08T03:10:23.125Z,98502.88
2018-09-08T03:12:50.415Z,98503.18
2018-09-08T03:15:18.215Z,98505.63
2018-09-08T03:17:45.498Z,98508.06
2018-09-08T03:20:12.741Z,98508.91
2018-09-08T03:22:40.027Z,98517.63
2018-09-08T03:25:07.768Z,98520.17
2018-09-08T03:27:35.253Z,98517.46
2018-09-08T03:30:02.901Z,98512.31
2018-09-08T03:32:30.167Z,98523.23
2018-09-08T03:34:57.432Z,98523.23
2018-09-08T03:37:24.721Z,98524.53
2018-09-08T03:39:52.027Z,98515.56
2018-09-08T03:42:19.312Z,98512.62
2018-09-08T03:44:46.597Z,98511.23
2018-09-08T03:47:13.959Z,98511.80
2018-09-08T03:49:41.223Z,98512.95
2018-09-08T03:52:09.141Z,98525.20
2018-09-08T03:54:36.442Z,98518.48
2018-09-08T03:57:03.746Z,98528.56
2018-09-08T03:59:31.025Z,98516.92
2018-09-08T04:01:58.384Z,98522.03
2018-09-08T04:04:27.415Z,98526.31
2018-09-08T04:06:57.156Z,98526.82
2018-09-08T04:09:26.840Z,98524.38
2018-09-08T04:11:56.131Z,98530.61
2018-09-08T04:14:25.257Z,98528.17
2018-09-08T04:16:54.411Z,98530.37
2018-09-08T04:19:23.177Z,98527.42
2018-09-08T04:21:52.221Z,98525.77
2018-09-08T04:24:21.158Z,98534.22
2018-09-08T04:26:50.685Z,98529.67
2018-09-08T04:29:20.007Z,98533.80
2018-09-08T04:31:48.662Z,98528.11
2018-09-08T04:34:17.207Z,98525.98
2018-09-08T04:36:46.477Z,98526.06
2018-09-08T04:39:15.486Z,98530.36
2018-09-08T04:41:44.736Z,98529.52
2018-09-08T04:44:13.635Z,98527.95
2018-09-08T04:46:43.187Z,98532.61
2018-09-08T04:49:12.561Z,98527.28
2018-09-08T04:51:41.521Z,98533.78
2018-09-08T04:54:10.837Z,98531.83
2018-09-08T04:56:40.161Z,98528.83
2018-09-08T04:59:08.682Z,98530.69
2018-09-08T05:01:37.690Z,98535.05
2018-09-08T05:04:06.513Z,98533.40
2018-09-08T05:06:35.195Z,98538.33
2018-09-08T05:09:04.578Z,98544.03
2018-09-08T05:11:33.421Z,98546.14
2018-09-08T05:14:03.235Z,98550.75
2018-09-08T05:16:32.215Z,98552.50
2018-09-08T05:19:01.118Z,98557.75
2018-09-08T05:21:30.593Z,98559.94
2018-09-08T05:23:59.731Z,98556.12
2018-09-08T05:26:28.866Z,98551.84
2018-09-08T05:28:57.655Z,98552.36
2018-09-08T05:31:27.353Z,98553.69
2018-09-08T05:33:56.154Z,98556.07
2018-09-08T05:36:25.323Z,98559.09
2018-09-08T05:38:54.311Z,98567.70
2018-09-08T05:41:23.101Z,98569.55
2018-09-08T05:43:51.742Z,98568.61
2018-09-08T05:46:21.273Z,98570.96
2018-09-08T05:48:50.720Z,98575.86
2018-09-08T05:51:20.129Z,98581.78
2018-09-08T05:53:48.922Z,98585.33
2018-09-08T05:56:18.517Z,98583.44
2018-09-08T05:58:47.709Z,98581.95
2018-09-08T06:01:18.019Z,98582.03
2018-09-08T06:03:46.797Z,98580.03
2018-09-08T06:06:15.536Z,98587.98
2018-09-08T06:08:44.231Z,98588.67
2018-09-08T06:11:13.099Z,98585.52
2018-09-08T06:13:41.939Z,98585.67
2018-09-08T06:16:11.328Z,98587.66
2018-09-08T06:18:41.613Z,98588.45
2018-09-08T06:21:10.858Z,98595.47
2018-09-08T06:23:40.257Z,98601.73
2018-09-08T06:26:09.118Z,98604.63
2018-09-08T06:28:38.392Z,98604.44
2018-09-08T06:31:07.712Z,98602.99
2018-09-08T06:33:37.183Z,98601.22
2018-09-08T06:36:08.097Z,98596.09
2018-09-08T06:38:36.878Z,98595.86
2018-09-08T06:41:05.625Z,98596.80
2018-09-08T06:43:34.308Z,98592.54
2018-09-08T06:46:03.244Z,98596.95
2018-09-08T06:48:32.059Z,98595.62
2018-09-08T06:51:01.308Z,98604.13
2018-09-08T06:53:30.141Z,98603.17
2018-09-08T06:55:58.887Z,98608.86
2018-09-08T06:58:29.252Z,98610.42
2018-09-08T07:00:58.353Z,98607.43
2018-09-08T07:03:27.202Z,98607.55
2018-09-08T07:05:56.726Z,98614.25
2018-09-08T07:08:26.533Z,98613.20
2018-09-08T07:10:55.461Z,98610.22
2018-09-08T07:13:24.464Z,98604.45
2018-09-08T07:15:54.704Z,98603.21
2018-09-08T07:18:23.310Z,98608.28
2018-09-08T07:20:52.037Z,98607.34
2018-09-08T07:23:21.729Z,98611.77
2018-09-08T07:25:50.499Z,98617.16
2018-09-08T07:28:23.585Z,98624.06
2018-09-08T07:30:53.730Z,98618.84
2018-09-08T07:33:22.389Z,98617.91
2018-09-08T07:35:51.231Z,98618.48
2018-09-08T07:38:21.117Z,98620.75
2018-09-08T07:40:49.882Z,98618.33
2018-09-08T07:43:18.579Z,98628.12
2018-09-08T07:45:48.392Z,98628.24
2018-09-08T07:48:17.373Z,98626.67
2018-09-08T07:50:46.734Z,98630.27
2018-09-08T07:53:15.517Z,98622.72
2018-09-08T07:55:44.294Z,98628.40
2018-09-08T07:58:13.142Z,98637.20
2018-09-08T08:00:42.509Z,98628.69
2018-09-08T08:03:11.753Z,98630.28
2018-09-08T08:05:41.128Z,98636.22
2018-09-08T08:08:09.957Z,98642.59
2018-09-08T08:10:38.689Z,98637.80
2018-09-08T08:13:07.832Z,98630.66
2018-09-08T08:15:36.523Z,98634.27
2018-09-08T08:18:06.079Z,98633.44
2018-09-08T08:20:34.938Z,98643.30
2018-09-08T08:23:03.613Z,98643.31
2018-09-08T08:25:33.167Z,98643.80
2018-09-08T08:28:02.057Z,98642.78
2018-09-08T08:30:31.300Z,98634.68
2018-09-08T08:33:00.460Z,98633.45
2018-09-08T08:35:29.929Z,98636.44
2018-09-08T08:37:59.832Z,98634.97
2018-09-08T08:40:30.117Z,98643.45
2018-09-08T08:42:59.374Z,98640.59
2018-09-08T08:45:28.167Z,98644.08
2018-09-08T08:47:56.837Z,98635.16
2018-09-08T08:51:36.337Z,98640.62
2018-09-08T08:54:22.038Z,98647.28
2018-09-08T08:56:50.834Z,98635.77
2018-09-08T08:59:20.359Z,98638.82
2018-09-08T09:01:51.297Z,98633.75
2018-09-08T09:04:19.963Z,98629.28
2018-09-08T09:06:48.697Z,98626.91
2018-09-08T09:09:17.386Z,98640.69
2018-09-08T09:11:46.557Z,98631.27
2018-09-08T09:14:16.094Z,98628.13
2018-09-08T09:16:45.140Z,98626.23
2018-09-08T09:19:37.408Z,98619.69
2018-09-08T09:22:18.570Z,98615.40
2018-09-08T09:24:59.474Z,98618.55
2018-09-08T09:27:29.733Z,98613.34
2018-09-08T09:29:58.953Z,98612.19
2018-09-08T09:32:27.820Z,98610.97
2018-09-08T09:34:59.429Z,98611.91
2018-09-08T09:37:28.496Z,98609.17
2018-09-08T09:40:02.238Z,98611.62
2018-09-08T09:42:30.933Z,98617.20
2018-09-08T09:45:00.299Z,98604.73
2018-09-08T09:47:30.398Z,98606.91
2018-09-08T09:49:59.711Z,98603.61
2018-09-08T09:52:28.609Z,98590.83
2018-09-08T09:54:58.520Z,98595.22
2018-09-08T09:57:27.232Z,98594.96
2018-09-08T09:59:56.594Z,98588.96
2018-09-08T10:02:43.813Z,98589.59
2018-09-08T10:05:23.109Z,98594.89
2018-09-08T10:07:53.463Z,98595.95
2018-09-08T10:10:25.753Z,98594.82
2018-09-08T10:12:55.904Z,98594.18
2018-09-08T10:15:24.870Z,98595.22
2018-09-08T10:17:54.488Z,98592.59
2018-09-08T10:20:23.888Z,98588.02
2018-09-08T10:22:53.746Z,98585.95
2018-09-08T10:25:22.763Z,98589.25
2018-09-08T10:27:51.747Z,98578.29
2018-09-08T10:30:22.099Z,98572.34
2018-09-08T10:32:51.384Z,98570.38
2018-09-08T10:35:20.528Z,98561.64
2018-09-08T10:37:49.953Z,98556.97
2018-09-08T10:40:19.222Z,98561.42
2018-09-08T10:42:48.331Z,98565.77
2018-09-08T10:45:18.371Z,98551.98
2018-09-08T10:47:47.821Z,98550.61
2018-09-08T10:50:16.541Z,98546.38
2018-09-08T10:52:46.660Z,98550.56
2018-09-08T10:55:15.452Z,98542.36
2018-09-08T10:57:44.656Z,98545.75
2018-09-08T11:00:16.789Z,98546.30
2018-09-08T11:02:45.817Z,98549.14
2018-09-08T11:05:15.354Z,98544.34
2018-09-08T11:07:44.026Z,98542.69
2018-09-08T11:10:12.669Z,98533.30
2018-09-08T11:12:42.038Z,98541.59
2018-09-08T11:15:11.356Z,98537.87
2018-09-08T11:17:40.709Z,98535.45
2018-09-08T11:20:09.869Z,98531.52
2018-09-08T11:22:38.786Z,98528.28
2018-09-08T11:25:08.143Z,98521.38
2018-09-08T11:27:37.226Z,98521.64
2018-09-08T11:30:07.230Z,98523.27
2018-09-08T11:32:35.920Z,98520.95
2018-09-08T11:35:05.383Z,98515.61
2018-09-08T11:37:34.136Z,98516.33
2018-09-08T11:40:03.490Z,98508.84
2018-09-08T11:42:32.535Z,98514.37
2018-09-08T11:45:01.511Z,98511.88
2018-09-08T11:47:30.285Z,98513.09
2018-09-08T11:49:59.250Z,98505.52
2018-09-08T11:52:28.505Z,98503.44
2018-09-08T11:54:57.379Z,98493.05
2018-09-08T11:57:27.128Z,98495.26
2018-09-08T11:59:55.804Z,98484.97
2018-09-08T12:02:24.399Z,98487.97
2018-09-08T12:04:53.809Z,98489.30
2018-09-08T12:07:23.375Z,98481.77
2018-09-08T12:09:52.120Z,98477.99
2018-09-08T12:12:21.256Z,98479.45
2018-09-08T12:14:50.491Z,98480.00
2018-09-08T12:17:19.623Z,98474.23
2018-09-08T12:19:48.629Z,98468.72
2018-09-08T12:22:17.522Z,98464.41
2018-09-08T12:24:46.311Z,98465.68
2018-09-08T12:27:15.250Z,98467.63
2018-09-08T12:29:44.806Z,98465.17
2018-09-08T12:32:14.582Z,98464.80
2018-09-08T12:34:44.239Z,98464.73
2018-09-08T12:37:13.877Z,98456.02
2018-09-08T12:39:42.644Z,98455.99
2018-09-08T12:42:12.299Z,98444.09
2018-09-08T12:44:41.196Z,98446.97
2018-09-08T12:47:09.981Z,98449.05
2018-09-08T12:49:39.515Z,98448.77
2018-09-08T12:52:08.825Z,98452.14
2018-09-08T12:54:38.266Z,98443.00
2018-09-08T12:57:07.505Z,98430.63
2018-09-08T12:59:36.294Z,98428.90
2018-09-08T13:02:05.044Z,98433.47
2018-09-08T13:04:34.004Z,98402.66
2018-09-08T13:07:04.009Z,98427.73
2018-09-08T13:09:32.726Z,98426.14
2018-09-08T13:12:02.662Z,98425.73
2018-09-08T13:14:32.374Z,98418.14
2018-09-08T13:17:01.234Z,98417.86
2018-09-08T13:19:30.625Z,98405.66
2018-09-08T13:21:59.591Z,98404.38
2018-09-08T13:24:28.381Z,98407.67
2018-09-08T13:26:57.861Z,98405.21
2018-09-08T13:29:27.119Z,98407.02
2018-09-08T13:31:56.382Z,98402.56
2018-09-08T13:34:25.531Z,98400.71
2018-09-08T13:36:54.986Z,98400.96
2018-09-08T13:39:24.221Z,98404.18
2018-09-08T13:41:54.195Z,98402.74
2018-09-08T13:44:23.174Z,98402.90
2018-09-08T13:46:51.826Z,98398.42
2018-09-08T13:49:20.613Z,98400.20
2018-09-08T13:51:50.304Z,98401.75
2018-09-08T13:54:20.932Z,98399.49
2018-09-08T13:56:49.716Z,98401.22
2018-09-08T13:59:18.909Z,98395.85
2018-09-08T14:01:47.665Z,98391.83
2018-09-08T14:04:16.560Z,98385.61
2018-09-08T14:06:45.312Z,98390.50
2018-09-08T14:09:14.134Z,98381.18
2018-09-08T14:11:42.852Z,98378.37
2018-09-08T14:14:12.125Z,98384.47
2018-09-08T14:16:41.041Z,98380.57
2018-09-08T14:19:09.796Z,98380.27
2018-09-08T14:21:38.871Z,98378.02
2018-09-08T14:24:08.020Z,98372.50
2018-09-08T14:26:37.229Z,98362.68
2018-09-08T14:29:06.627Z,98363.62
2018-09-08T14:31:35.931Z,98365.62
2018-09-08T14:34:04.920Z,98363.68
2018-09-08T14:36:33.944Z,98361.59
2018-09-08T14:39:03.571Z,98367.39
2018-09-08T14:41:32.297Z,98373.72
2018-09-08T14:44:02.850Z,98366.77
2018-09-08T14:46:32.201Z,98363.39
2018-09-08T14:49:00.963Z,98360.58
2018-09-08T14:51:30.076Z,98358.02
2018-09-08T14:53:58.877Z,98362.95
2018-09-08T14:56:27.811Z,98359.78
2018-09-08T14:58:57.595Z,98360.33
2018-09-08T15:01:26.460Z,98353.00
2018-09-08T15:03:55.234Z,98358.72
2018-09-08T15:06:24.219Z,98360.49
2018-09-08T15:08:53.204Z,98358.36
2018-09-08T15:11:22.691Z,98355.20
2018-09-08T15:13:51.790Z,98351.08
2018-09-08T15:16:20.686Z,98354.28
2018-09-08T15:18:49.571Z,98350.92
2018-09-08T15:21:18.866Z,98346.61
2018-09-08T15:23:47.635Z,98344.27
2018-09-08T15:26:17.655Z,98344.87
2018-09-08T15:28:46.517Z,98347.04
2018-09-08T15:31:15.446Z,98342.70
2018-09-08T15:33:44.723Z,98337.16
2018-09-08T15:36:14.221Z,98344.48
2018-09-08T15:38:43.777Z,98340.52
2018-09-08T15:41:13.535Z,98343.12
2018-09-08T15:43:46.059Z,98349.25
2018-09-08T15:46:14.985Z,98352.38
2018-09-08T15:48:43.846Z,98350.80
2018-09-08T15:51:12.762Z,98353.75
2018-09-08T15:53:41.858Z,98351.72
2018-09-08T15:56:10.857Z,98354.64
2018-09-08T15:58:40.830Z,98352.67
2018-09-08T16:01:09.852Z,98361.17
2018-09-08T16:03:38.537Z,98362.05
2018-09-08T16:06:07.370Z,98362.05
2018-09-08T16:08:36.251Z,98364.97
2018-09-08T16:11:05.611Z,98357.86
2018-09-08T16:13:34.811Z,98354.66
2018-09-08T16:16:03.739Z,98356.48
2018-09-08T16:18:33.360Z,98349.78
2018-09-08T16:21:02.372Z,98357.09
2018-09-08T16:23:32.170Z,98347.67
2018-09-08T16:26:01.152Z,98348.06
2018-09-08T16:28:31.812Z,98349.91
2018-09-08T16:31:00.656Z,98347.80
2018-09-08T16:33:30.697Z,98348.30
2018-09-08T16:35:59.716Z,98349.45
2018-09-08T16:38:29.978Z,98347.76
2018-09-08T16:40:59.476Z,98349.16
2018-09-08T16:43:28.488Z,98346.45
2018-09-08T16:45:57.529Z,98348.28
2018-09-08T16:48:26.826Z,98345.17
2018-09-08T16:50:56.477Z,98347.99
2018-09-08T16:53:25.360Z,98348.04
2018-09-08T16:55:54.066Z,98348.27
2018-09-08T16:58:22.796Z,98350.81
2018-09-08T17:00:51.606Z,98346.00
2018-09-08T17:03:20.456Z,98351.31
2018-09-08T17:05:50.156Z,98352.06
2018-09-08T17:08:19.746Z,98349.00
2018-09-08T17:10:50.323Z,98358.92
2018-09-08T17:13:19.088Z,98355.84
2018-09-08T17:15:47.962Z,98361.70
2018-09-08T17:18:18.628Z,98357.59
2018-09-08T17:20:47.440Z,98363.73
2018-09-08T17:23:16.286Z,98360.54
2018-09-08T17:25:46.372Z,98365.50
2018-09-08T17:28:15.620Z,98368.83
2018-09-08T17:30:44.713Z,98369.27
2018-09-08T17:33:13.984Z,98375.14
2018-09-08T17:35:43.042Z,98378.20
2018-09-08T17:38:11.911Z,98379.99
2018-09-08T17:40:40.622Z,98379.28
2018-09-08T17:43:09.341Z,98380.59
2018-09-08T17:45:38.227Z,98390.42
2018-09-08T17:48:08.529Z,98385.42
2018-09-08T17:50:37.683Z,98388.44
2018-09-08T17:53:07.028Z,98381.64
2018-09-08T17:55:35.802Z,98383.02
2018-09-08T17:58:04.946Z,98381.43
2018-09-08T18:00:34.291Z,98388.57
2018-09-08T18:03:05.099Z,98382.91
2018-09-08T18:05:35.594Z,98388.41
2018-09-08T18:08:05.053Z,98392.98
2018-09-08T18:10:34.053Z,98393.58
2018-09-08T18:13:02.962Z,98399.85
2018-09-08T18:15:32.503Z,98402.55
2018-09-08T18:18:01.600Z,98408.31
2018-09-08T18:20:31.047Z,98413.38
2018-09-08T18:23:00.153Z,98409.97
2018-09-08T18:25:29.564Z,98406.78
2018-09-08T18:27:58.667Z,98411.37
2018-09-08T18:30:27.859Z,98418.92
2018-09-08T18:32:57.192Z,98409.82
2018-09-08T18:35:25.833Z,98418.27
2018-09-08T18:37:54.639Z,98416.94
2018-09-08T18:40:24.015Z,98414.64
2018-09-08T18:42:53.002Z,98424.66
2018-09-08T18:45:22.351Z,98427.06
2018-09-08T18:47:51.469Z,98430.00
2018-09-08T18:50:20.838Z,98430.87
2018-09-08T18:52:49.607Z,98433.19
2018-09-08T18:55:19.423Z,98427.27
2018-09-08T18:57:49.144Z,98431.45
2018-09-08T19:00:17.944Z,98436.53
2018-09-08T19:02:46.938Z,98436.02
2018-09-08T19:05:16.215Z,98432.61
2018-09-08T19:07:45.914Z,98437.85
2018-09-08T19:10:14.867Z,98434.87
2018-09-08T19:12:43.737Z,98431.55
2018-09-08T19:15:15.550Z,98437.83
2018-09-08T19:17:45.001Z,98443.06
2018-09-08T19:20:19.161Z,98438.97
2018-09-08T19:22:48.836Z,98440.03
2018-09-08T19:25:18.643Z,98442.16
2018-09-08T19:27:48.193Z,98441.69
2018-09-08T19:30:17.082Z,98443.31
2018-09-08T19:32:46.804Z,98449.44
2018-09-08T19:35:20.721Z,98449.83
2018-09-08T19:37:50.224Z,98455.30
2018-09-08T19:40:24.223Z,98454.04
2018-09-08T19:42:53.240Z,98455.22
2018-09-08T19:45:22.329Z,98454.02
2018-09-08T19:47:57.100Z,98455.32
2018-09-08T19:50:26.032Z,98454.94
2018-09-08T19:52:59.903Z,98465.44
2018-09-08T19:55:29.050Z,98460.39
2018-09-08T19:58:02.951Z,98464.88
2018-09-08T20:00:32.012Z,98467.69
2018-09-08T20:03:00.903Z,98468.17
2018-09-08T20:05:31.292Z,98468.55
2018-09-08T20:08:00.377Z,98470.47
2018-09-08T20:10:29.767Z,98470.47
2018-09-08T20:13:00.232Z,98473.83
2018-09-08T20:15:29.027Z,98478.93
2018-09-08T20:17:58.696Z,98479.95
2018-09-08T20:20:27.466Z,98483.31
2018-09-08T20:22:57.972Z,98479.58
2018-09-08T20:25:27.313Z,98489.69
2018-09-08T20:27:56.123Z,98487.03
2018-09-08T20:30:25.002Z,98488.07
2018-09-08T20:32:53.863Z,98491.45
2018-09-08T20:35:23.092Z,98490.09
2018-09-08T20:37:53.405Z,98486.08
2018-09-08T20:40:22.729Z,98490.84
2018-09-08T20:42:51.734Z,98489.64
2018-09-08T20:45:21.627Z,98487.53
2018-09-08T20:47:51.398Z,98489.50
2018-09-08T20:50:20.114Z,98489.80
2018-09-08T20:52:48.912Z,98486.86
2018-09-08T20:55:17.793Z,98483.77
2018-09-08T20:57:47.269Z,98493.02
2018-09-08T21:00:17.452Z,98490.36
2018-09-08T21:02:46.402Z,98488.72
2018-09-08T21:05:15.982Z,98480.24
2018-09-08T21:07:44.713Z,98475.50
2018-09-08T21:10:14.373Z,98480.30
2018-09-08T21:12:43.099Z,98474.73
2018-09-08T21:15:12.692Z,98476.59
2018-09-08T21:17:42.090Z,98470.77
2018-09-08T21:20:11.062Z,98473.62
2018-09-08T21:22:39.839Z,98473.12
2018-09-08T21:25:09.539Z,98477.68
2018-09-08T21:27:38.949Z,98474.09
2018-09-08T21:30:07.991Z,98472.25
2018-09-08T21:32:36.928Z,98475.61
2018-09-08T21:35:07.454Z,98470.27
2018-09-08T21:37:36.618Z,98473.52
2018-09-08T21:40:05.970Z,98479.67
2018-09-08T21:42:34.660Z,98473.84
2018-09-08T21:45:04.430Z,98480.00
2018-09-08T21:47:33.357Z,98480.45
2018-09-08T21:50:03.349Z,98476.57
2018-09-08T21:52:32.134Z,98476.57
2018-09-08T21:55:01.676Z,98475.39
2018-09-08T21:57:30.432Z,98473.00
2018-09-08T21:59:59.219Z,98474.27
2018-09-08T22:02:28.126Z,98482.50
2018-09-08T22:04:58.317Z,98479.69
2018-09-08T22:07:30.650Z,98477.74
2018-09-08T22:09:59.777Z,98479.38
2018-09-08T22:12:28.660Z,98478.60
2018-09-08T22:14:57.996Z,98483.27
2018-09-08T22:17:26.758Z,98483.86
2018-09-08T22:19:55.501Z,98484.98
2018-09-08T22:22:24.177Z,98484.98
2018-09-08T22:24:53.134Z,98485.78
2018-09-08T22:27:22.038Z,98488.28
2018-09-08T22:29:51.867Z,98490.00
2018-09-08T22:32:20.608Z,98489.76
2018-09-08T22:34:50.219Z,98492.30
2018-09-08T22:37:18.939Z,98496.12
2018-09-08T22:39:48.427Z,98502.69
2018-09-08T22:42:17.273Z,98502.64
2018-09-08T22:44:46.884Z,98506.67
2018-09-08T22:47:15.828Z,98513.49
2018-09-08T22:49:44.940Z,98511.91
2018-09-08T22:52:14.399Z,98511.91
2018-09-08T22:54:43.424Z,98519.58
2018-09-08T22:57:12.333Z,98514.74
2018-09-08T22:59:40.981Z,98517.11
2018-09-08T23:02:09.808Z,98516.38
2018-09-08T23:04:39.387Z,98518.78
2018-09-08T23:07:08.572Z,98521.84
2018-09-08T23:09:38.059Z,98523.20
2018-09-08T23:12:07.399Z,98525.79
2018-09-08T23:14:36.358Z,98524.78
2018-09-08T23:17:06.542Z,98524.52
2018-09-08T23:19:35.492Z,98521.87
2018-09-08T23:22:04.854Z,98526.70
2018-09-08T23:24:33.614Z,98520.38
2018-09-08T23:27:02.381Z,98515.03
2018-09-08T23:29:32.503Z,98517.37
2018-09-08T23:32:01.473Z,98519.00
2018-09-08T23:34:30.929Z,98511.58
2018-09-08T23:36:59.745Z,98519.05
2018-09-08T23:39:28.578Z,98519.42
2018-09-08T23:41:57.367Z,98518.06
2018-09-08T23:44:26.001Z,98521.47
2018-09-08T23:46:56.192Z,98525.53
2018-09-08T23:49:25.325Z,98520.89
2018-09-08T23:51:54.514Z,98525.05
2018-09-08T23:54:23.883Z,98529.67
2018-09-08T23:56:52.723Z,98531.81
2018-09-08T23:59:22.229Z,98530.33
